sensor_id;sensor_type;location;lat;lon;timestamp;temperature;humidity
62464;SHT31;48512;48.552;9.380;2022-09-30T00:00:58;7.81;86.01
62464;SHT31;48512;48.552;9.380;2022-09-30T00:03:23;7.66;86.81
62464;SHT31;48512;48.552;9.380;2022-09-30T00:05:56;7.60;87.03
62464;SHT31;48512;48.552;9.380;2022-09-30T00:08:21;7.58;87.06
62464;SHT31;48512;48.552;9.380;2022-09-30T00:10:46;7.57;87.02
62464;SHT31;48512;48.552;9.380;2022-09-30T00:13:11;7.51;87.17
62464;SHT31;48512;48.552;9.380;2022-09-30T00:15:37;7.53;87.17
62464;SHT31;48512;48.552;9.380;2022-09-30T00:18:02;7.53;87.16
62464;SHT31;48512;48.552;9.380;2022-09-30T00:20:27;7.44;87.35
62464;SHT31;48512;48.552;9.380;2022-09-30T00:22:52;7.39;87.71
62464;SHT31;48512;48.552;9.380;2022-09-30T00:25:18;7.48;87.48
62464;SHT31;48512;48.552;9.380;2022-09-30T00:27:43;7.50;87.33
62464;SHT31;48512;48.552;9.380;2022-09-30T00:30:09;7.57;87.06
62464;SHT31;48512;48.552;9.380;2022-09-30T00:32:34;7.54;87.32
62464;SHT31;48512;48.552;9.380;2022-09-30T00:34:59;7.66;87.07
62464;SHT31;48512;48.552;9.380;2022-09-30T00:37:25;7.67;87.02
62464;SHT31;48512;48.552;9.380;2022-09-30T00:39:50;7.74;86.97
62464;SHT31;48512;48.552;9.380;2022-09-30T00:42:15;7.71;87.15
62464;SHT31;48512;48.552;9.380;2022-09-30T00:52:53;7.47;88.33
62464;SHT31;48512;48.552;9.380;2022-09-30T00:55:23;7.60;88.04
62464;SHT31;48512;48.552;9.380;2022-09-30T00:57:50;7.67;88.08
62464;SHT31;48512;48.552;9.380;2022-09-30T01:00:15;7.64;88.23
62464;SHT31;48512;48.552;9.380;2022-09-30T01:02:40;7.53;88.71
62464;SHT31;48512;48.552;9.380;2022-09-30T01:05:06;7.51;89.18
62464;SHT31;48512;48.552;9.380;2022-09-30T01:07:33;7.56;89.09
62464;SHT31;48512;48.552;9.380;2022-09-30T01:10:00;7.54;89.41
62464;SHT31;48512;48.552;9.380;2022-09-30T01:12:25;7.60;89.23
62464;SHT31;48512;48.552;9.380;2022-09-30T01:14:51;7.63;88.99
62464;SHT31;48512;48.552;9.380;2022-09-30T01:22:23;7.61;89.03
62464;SHT31;48512;48.552;9.380;2022-09-30T01:37:26;7.54;89.18
62464;SHT31;48512;48.552;9.380;2022-09-30T01:40:05;7.47;89.45
62464;SHT31;48512;48.552;9.380;2022-09-30T01:45:33;7.39;89.84
62464;SHT31;48512;48.552;9.380;2022-09-30T01:50:41;7.51;89.29
62464;SHT31;48512;48.552;9.380;2022-09-30T01:53:18;7.48;89.20
62464;SHT31;48512;48.552;9.380;2022-09-30T01:55:57;7.50;88.90
62464;SHT31;48512;48.552;9.380;2022-09-30T02:00:53;7.43;88.65
62464;SHT31;48512;48.552;9.380;2022-09-30T02:03:27;7.40;88.71
62464;SHT31;48512;48.552;9.380;2022-09-30T02:05:57;7.27;88.78
62464;SHT31;48512;48.552;9.380;2022-09-30T02:08:40;7.18;89.22
62464;SHT31;48512;48.552;9.380;2022-09-30T02:11:14;7.05;89.55
62464;SHT31;48512;48.552;9.380;2022-09-30T02:13:47;7.10;89.83
62464;SHT31;48512;48.552;9.380;2022-09-30T02:16:15;7.18;89.75
62464;SHT31;48512;48.552;9.380;2022-09-30T02:18:46;7.26;89.40
62464;SHT31;48512;48.552;9.380;2022-09-30T02:21:13;7.40;89.09
62464;SHT31;48512;48.552;9.380;2022-09-30T02:23:40;7.42;88.91
62464;SHT31;48512;48.552;9.380;2022-09-30T02:26:17;7.31;89.17
62464;SHT31;48512;48.552;9.380;2022-09-30T02:28:48;7.16;89.68
62464;SHT31;48512;48.552;9.380;2022-09-30T02:31:15;7.19;89.65
62464;SHT31;48512;48.552;9.380;2022-09-30T02:36:32;7.02;90.08
62464;SHT31;48512;48.552;9.380;2022-09-30T02:39:00;7.00;90.32
62464;SHT31;48512;48.552;9.380;2022-09-30T02:41:27;7.12;90.26
62464;SHT31;48512;48.552;9.380;2022-09-30T02:43:53;7.22;89.90
62464;SHT31;48512;48.552;9.380;2022-09-30T02:48:59;7.36;89.42
62464;SHT31;48512;48.552;9.380;2022-09-30T02:59:09;7.48;88.86
62464;SHT31;48512;48.552;9.380;2022-09-30T03:01:35;7.42;89.04
62464;SHT31;48512;48.552;9.380;2022-09-30T03:04:05;7.43;89.03
62464;SHT31;48512;48.552;9.380;2022-09-30T03:06:33;7.46;88.75
62464;SHT31;48512;48.552;9.380;2022-09-30T03:08:59;7.48;88.64
62464;SHT31;48512;48.552;9.380;2022-09-30T03:11:25;7.50;88.50
62464;SHT31;48512;48.552;9.380;2022-09-30T03:26:53;7.20;88.96
62464;SHT31;48512;48.552;9.380;2022-09-30T03:29:26;7.39;88.35
62464;SHT31;48512;48.552;9.380;2022-09-30T03:34:22;7.16;88.91
62464;SHT31;48512;48.552;9.380;2022-09-30T03:44:20;7.03;89.52
62464;SHT31;48512;48.552;9.380;2022-09-30T03:46:52;7.09;89.44
62464;SHT31;48512;48.552;9.380;2022-09-30T03:49:19;7.15;89.55
62464;SHT31;48512;48.552;9.380;2022-09-30T03:51:45;7.12;89.64
62464;SHT31;48512;48.552;9.380;2022-09-30T03:54:11;7.09;89.65
62464;SHT31;48512;48.552;9.380;2022-09-30T03:56:37;7.13;89.46
62464;SHT31;48512;48.552;9.380;2022-09-30T03:59:28;7.13;89.31
62464;SHT31;48512;48.552;9.380;2022-09-30T04:01:53;7.09;89.36
62464;SHT31;48512;48.552;9.380;2022-09-30T04:04:18;7.12;89.14
62464;SHT31;48512;48.552;9.380;2022-09-30T04:06:43;7.05;89.07
62464;SHT31;48512;48.552;9.380;2022-09-30T04:09:09;6.95;89.33
62464;SHT31;48512;48.552;9.380;2022-09-30T04:11:35;6.88;89.27
62464;SHT31;48512;48.552;9.380;2022-09-30T04:14:00;6.75;89.27
62464;SHT31;48512;48.552;9.380;2022-09-30T04:16:29;6.68;89.25
62464;SHT31;48512;48.552;9.380;2022-09-30T04:18:54;6.63;89.58
62464;SHT31;48512;48.552;9.380;2022-09-30T04:21:21;6.70;89.19
62464;SHT31;48512;48.552;9.380;2022-09-30T04:23:46;6.65;89.14
62464;SHT31;48512;48.552;9.380;2022-09-30T04:26:12;6.58;89.24
62464;SHT31;48512;48.552;9.380;2022-09-30T04:28:38;6.45;89.68
62464;SHT31;48512;48.552;9.380;2022-09-30T04:31:04;6.41;90.08
62464;SHT31;48512;48.552;9.380;2022-09-30T04:33:30;6.54;89.65
62464;SHT31;48512;48.552;9.380;2022-09-30T04:35:56;6.40;89.61
62464;SHT31;48512;48.552;9.380;2022-09-30T04:38:22;6.37;89.28
62464;SHT31;48512;48.552;9.380;2022-09-30T04:40:49;6.29;89.42
62464;SHT31;48512;48.552;9.380;2022-09-30T04:43:15;6.20;89.61
62464;SHT31;48512;48.552;9.380;2022-09-30T04:45:42;6.23;89.39
62464;SHT31;48512;48.552;9.380;2022-09-30T04:48:08;6.27;89.04
62464;SHT31;48512;48.552;9.380;2022-09-30T04:50:33;6.27;89.06
62464;SHT31;48512;48.552;9.380;2022-09-30T04:52:59;6.32;88.77
62464;SHT31;48512;48.552;9.380;2022-09-30T04:55:24;6.23;89.19
62464;SHT31;48512;48.552;9.380;2022-09-30T04:57:49;6.22;89.42
62464;SHT31;48512;48.552;9.380;2022-09-30T05:00:15;6.24;89.50
62464;SHT31;48512;48.552;9.380;2022-09-30T05:02:41;6.33;89.11
62464;SHT31;48512;48.552;9.380;2022-09-30T05:05:07;6.36;88.75
62464;SHT31;48512;48.552;9.380;2022-09-30T05:07:32;6.37;88.52
62464;SHT31;48512;48.552;9.380;2022-09-30T05:09:57;6.41;88.08
62464;SHT31;48512;48.552;9.380;2022-09-30T05:12:23;6.24;88.12
62464;SHT31;48512;48.552;9.380;2022-09-30T05:14:49;6.26;88.11
62464;SHT31;48512;48.552;9.380;2022-09-30T05:17:14;6.07;88.41
62464;SHT31;48512;48.552;9.380;2022-09-30T05:19:39;5.99;88.58
62464;SHT31;48512;48.552;9.380;2022-09-30T05:22:05;5.96;88.49
62464;SHT31;48512;48.552;9.380;2022-09-30T05:24:30;5.96;88.43
62464;SHT31;48512;48.552;9.380;2022-09-30T05:26:55;5.92;88.60
62464;SHT31;48512;48.552;9.380;2022-09-30T05:29:20;5.91;88.44
62464;SHT31;48512;48.552;9.380;2022-09-30T05:31:46;5.89;88.41
62464;SHT31;48512;48.552;9.380;2022-09-30T05:34:11;5.79;88.60
62464;SHT31;48512;48.552;9.380;2022-09-30T05:36:36;5.82;88.56
62464;SHT31;48512;48.552;9.380;2022-09-30T05:39:02;5.74;88.85
62464;SHT31;48512;48.552;9.380;2022-09-30T05:41:27;5.82;88.63
62464;SHT31;48512;48.552;9.380;2022-09-30T05:43:52;5.84;88.40
62464;SHT31;48512;48.552;9.380;2022-09-30T05:46:18;5.81;88.53
62464;SHT31;48512;48.552;9.380;2022-09-30T05:48:44;5.71;88.84
62464;SHT31;48512;48.552;9.380;2022-09-30T05:51:09;5.75;88.69
62464;SHT31;48512;48.552;9.380;2022-09-30T05:53:36;5.66;89.03
62464;SHT31;48512;48.552;9.380;2022-09-30T05:56:06;5.69;89.24
62464;SHT31;48512;48.552;9.380;2022-09-30T05:58:32;5.76;88.75
62464;SHT31;48512;48.552;9.380;2022-09-30T06:01:01;5.75;88.64
62464;SHT31;48512;48.552;9.380;2022-09-30T06:03:27;5.85;88.35
62464;SHT31;48512;48.552;9.380;2022-09-30T06:05:55;5.86;88.28
62464;SHT31;48512;48.552;9.380;2022-09-30T06:08:21;5.85;88.53
62464;SHT31;48512;48.552;9.380;2022-09-30T06:10:47;5.99;87.95
62464;SHT31;48512;48.552;9.380;2022-09-30T06:13:12;5.98;88.39
62464;SHT31;48512;48.552;9.380;2022-09-30T06:15:37;5.88;89.07
62464;SHT31;48512;48.552;9.380;2022-09-30T06:18:05;5.85;89.28
62464;SHT31;48512;48.552;9.380;2022-09-30T06:20:31;5.84;89.39
62464;SHT31;48512;48.552;9.380;2022-09-30T06:22:59;5.93;88.91
62464;SHT31;48512;48.552;9.380;2022-09-30T06:25:25;5.91;89.07
62464;SHT31;48512;48.552;9.380;2022-09-30T06:27:52;5.89;89.26
62464;SHT31;48512;48.552;9.380;2022-09-30T06:30:18;5.99;89.18
62464;SHT31;48512;48.552;9.380;2022-09-30T06:32:43;6.05;89.38
62464;SHT31;48512;48.552;9.380;2022-09-30T06:35:09;6.20;89.51
62464;SHT31;48512;48.552;9.380;2022-09-30T06:37:35;6.17;89.84
62464;SHT31;48512;48.552;9.380;2022-09-30T06:40:02;6.19;90.43
62464;SHT31;48512;48.552;9.380;2022-09-30T06:42:28;6.32;90.72
62464;SHT31;48512;48.552;9.380;2022-09-30T06:44:53;6.41;90.77
62464;SHT31;48512;48.552;9.380;2022-09-30T06:47:19;6.50;90.78
62464;SHT31;48512;48.552;9.380;2022-09-30T06:49:45;6.53;91.23
62464;SHT31;48512;48.552;9.380;2022-09-30T06:52:10;6.63;91.12
62464;SHT31;48512;48.552;9.380;2022-09-30T06:54:38;6.75;90.74
62464;SHT31;48512;48.552;9.380;2022-09-30T06:57:04;6.87;90.48
62464;SHT31;48512;48.552;9.380;2022-09-30T06:59:29;7.03;90.38
62464;SHT31;48512;48.552;9.380;2022-09-30T07:01:54;7.15;90.14
62464;SHT31;48512;48.552;9.380;2022-09-30T07:04:19;7.29;90.01
62464;SHT31;48512;48.552;9.380;2022-09-30T07:06:45;7.43;90.19
62464;SHT31;48512;48.552;9.380;2022-09-30T07:09:10;7.57;89.99
62464;SHT31;48512;48.552;9.380;2022-09-30T07:11:36;7.71;90.14
62464;SHT31;48512;48.552;9.380;2022-09-30T07:14:02;7.86;90.35
62464;SHT31;48512;48.552;9.380;2022-09-30T07:16:28;7.96;90.06
62464;SHT31;48512;48.552;9.380;2022-09-30T07:18:55;8.12;90.09
62464;SHT31;48512;48.552;9.380;2022-09-30T07:21:21;8.22;90.24
62464;SHT31;48512;48.552;9.380;2022-09-30T07:23:46;8.30;90.06
62464;SHT31;48512;48.552;9.380;2022-09-30T07:26:15;8.40;89.98
62464;SHT31;48512;48.552;9.380;2022-09-30T07:28:41;8.46;89.92
62464;SHT31;48512;48.552;9.380;2022-09-30T07:31:09;8.53;89.85
62464;SHT31;48512;48.552;9.380;2022-09-30T07:33:36;8.67;89.78
62464;SHT31;48512;48.552;9.380;2022-09-30T07:36:03;8.80;89.93
62464;SHT31;48512;48.552;9.380;2022-09-30T07:38:32;8.82;90.04
62464;SHT31;48512;48.552;9.380;2022-09-30T07:43:27;9.02;89.33
62464;SHT31;48512;48.552;9.380;2022-09-30T07:46:01;9.19;88.73
62464;SHT31;48512;48.552;9.380;2022-09-30T07:48:26;9.28;88.56
62464;SHT31;48512;48.552;9.380;2022-09-30T07:51:12;9.42;88.34
62464;SHT31;48512;48.552;9.380;2022-09-30T07:53:38;9.54;88.06
62464;SHT31;48512;48.552;9.380;2022-09-30T07:56:04;9.67;87.67
62464;SHT31;48512;48.552;9.380;2022-09-30T07:58:30;9.84;87.42
62464;SHT31;48512;48.552;9.380;2022-09-30T08:00:56;9.85;87.19
62464;SHT31;48512;48.552;9.380;2022-09-30T08:03:21;10.06;86.91
62464;SHT31;48512;48.552;9.380;2022-09-30T08:05:46;10.24;86.81
62464;SHT31;48512;48.552;9.380;2022-09-30T08:08:13;10.35;86.16
62464;SHT31;48512;48.552;9.380;2022-09-30T08:10:39;10.50;85.71
62464;SHT31;48512;48.552;9.380;2022-09-30T08:13:04;10.64;85.87
62464;SHT31;48512;48.552;9.380;2022-09-30T08:15:30;10.73;85.29
62464;SHT31;48512;48.552;9.380;2022-09-30T08:17:55;10.85;84.47
62464;SHT31;48512;48.552;9.380;2022-09-30T08:20:20;10.89;84.38
62464;SHT31;48512;48.552;9.380;2022-09-30T08:22:45;10.83;84.52
62464;SHT31;48512;48.552;9.380;2022-09-30T08:25:11;10.89;84.30
62464;SHT31;48512;48.552;9.380;2022-09-30T08:27:37;11.00;84.28
62464;SHT31;48512;48.552;9.380;2022-09-30T08:30:02;11.04;83.86
62464;SHT31;48512;48.552;9.380;2022-09-30T08:32:31;11.15;83.37
62464;SHT31;48512;48.552;9.380;2022-09-30T08:34:56;11.12;83.33
62464;SHT31;48512;48.552;9.380;2022-09-30T08:37:21;11.17;83.25
62464;SHT31;48512;48.552;9.380;2022-09-30T08:39:48;11.28;82.97
62464;SHT31;48512;48.552;9.380;2022-09-30T08:44:47;11.38;82.96
62464;SHT31;48512;48.552;9.380;2022-09-30T08:52:11;11.73;81.61
62464;SHT31;48512;48.552;9.380;2022-09-30T08:54:45;11.70;81.68
62464;SHT31;48512;48.552;9.380;2022-09-30T08:57:11;11.86;82.34
62464;SHT31;48512;48.552;9.380;2022-09-30T08:59:42;11.93;83.39
62464;SHT31;48512;48.552;9.380;2022-09-30T09:04:40;12.23;81.04
62464;SHT31;48512;48.552;9.380;2022-09-30T09:12:19;12.20;80.63
62464;SHT31;48512;48.552;9.380;2022-09-30T09:20:12;12.59;78.91
62464;SHT31;48512;48.552;9.380;2022-09-30T09:22:38;12.76;78.68
62464;SHT31;48512;48.552;9.380;2022-09-30T09:25:04;12.85;78.50
62464;SHT31;48512;48.552;9.380;2022-09-30T09:30:14;13.41;76.62
62464;SHT31;48512;48.552;9.380;2022-09-30T09:32:41;13.85;74.53
62464;SHT31;48512;48.552;9.380;2022-09-30T09:35:14;13.93;74.75
62464;SHT31;48512;48.552;9.380;2022-09-30T09:43:02;14.38;72.66
62464;SHT31;48512;48.552;9.380;2022-09-30T09:45:39;14.29;72.05
62464;SHT31;48512;48.552;9.380;2022-09-30T09:48:08;14.36;73.19
62464;SHT31;48512;48.552;9.380;2022-09-30T09:50:50;14.56;72.33
62464;SHT31;48512;48.552;9.380;2022-09-30T09:53:21;14.92;73.73
62464;SHT31;48512;48.552;9.380;2022-09-30T09:55:53;14.82;73.08
62464;SHT31;48512;48.552;9.380;2022-09-30T09:58:19;15.13;72.67
62464;SHT31;48512;48.552;9.380;2022-09-30T10:00:45;15.50;72.48
62464;SHT31;48512;48.552;9.380;2022-09-30T10:03:15;15.74;70.75
62464;SHT31;48512;48.552;9.380;2022-09-30T10:05:44;16.08;68.54
62464;SHT31;48512;48.552;9.380;2022-09-30T10:08:20;16.42;66.65
62464;SHT31;48512;48.552;9.380;2022-09-30T10:10:53;16.73;65.95
62464;SHT31;48512;48.552;9.380;2022-09-30T10:15:44;17.34;63.00
62464;SHT31;48512;48.552;9.380;2022-09-30T10:18:30;17.56;62.19
62464;SHT31;48512;48.552;9.380;2022-09-30T10:20:57;18.04;62.15
62464;SHT31;48512;48.552;9.380;2022-09-30T10:25:55;18.32;61.20
62464;SHT31;48512;48.552;9.380;2022-09-30T10:28:25;18.56;61.03
62464;SHT31;48512;48.552;9.380;2022-09-30T10:33:25;18.87;60.00
62464;SHT31;48512;48.552;9.380;2022-09-30T10:36:02;19.06;58.75
62464;SHT31;48512;48.552;9.380;2022-09-30T10:38:28;19.39;57.63
62464;SHT31;48512;48.552;9.380;2022-09-30T10:40:55;19.04;57.83
62464;SHT31;48512;48.552;9.380;2022-09-30T10:44:04;19.44;56.70
62464;SHT31;48512;48.552;9.380;2022-09-30T10:46:09;19.69;55.33
62464;SHT31;48512;48.552;9.380;2022-09-30T10:48:35;20.27;56.73
62464;SHT31;48512;48.552;9.380;2022-09-30T10:51:02;20.54;54.28
62464;SHT31;48512;48.552;9.380;2022-09-30T10:53:31;20.81;53.59
62464;SHT31;48512;48.552;9.380;2022-09-30T10:55:58;20.48;54.33
62464;SHT31;48512;48.552;9.380;2022-09-30T11:00:56;20.89;54.87
62464;SHT31;48512;48.552;9.380;2022-09-30T11:06:08;21.29;50.11
62464;SHT31;48512;48.552;9.380;2022-09-30T11:08:40;21.31;50.40
62464;SHT31;48512;48.552;9.380;2022-09-30T11:11:13;21.26;51.12
62464;SHT31;48512;48.552;9.380;2022-09-30T11:18:43;22.46;48.14
62464;SHT31;48512;48.552;9.380;2022-09-30T11:21:17;22.36;47.71
62464;SHT31;48512;48.552;9.380;2022-09-30T11:23:48;22.33;47.38
62464;SHT31;48512;48.552;9.380;2022-09-30T11:26:37;22.42;45.94
62464;SHT31;48512;48.552;9.380;2022-09-30T11:37:00;20.09;51.18
62464;SHT31;48512;48.552;9.380;2022-09-30T11:42:26;19.94;50.62
62464;SHT31;48512;48.552;9.380;2022-09-30T11:44:44;20.13;50.47
62464;SHT31;48512;48.552;9.380;2022-09-30T11:52:18;21.26;56.28
62464;SHT31;48512;48.552;9.380;2022-09-30T12:00:16;22.77;50.37
62464;SHT31;48512;48.552;9.380;2022-09-30T12:02:46;23.25;49.12
62464;SHT31;48512;48.552;9.380;2022-09-30T12:05:15;23.86;47.38
62464;SHT31;48512;48.552;9.380;2022-09-30T12:07:56;23.57;46.22
62464;SHT31;48512;48.552;9.380;2022-09-30T12:10:26;22.59;44.73
62464;SHT31;48512;48.552;9.380;2022-09-30T12:13:00;23.37;46.77
62464;SHT31;48512;48.552;9.380;2022-09-30T12:15:27;24.03;42.56
62464;SHT31;48512;48.552;9.380;2022-09-30T12:17:54;22.78;44.08
62464;SHT31;48512;48.552;9.380;2022-09-30T12:22:51;22.33;44.97
62464;SHT31;48512;48.552;9.380;2022-09-30T12:25:22;22.53;43.22
62464;SHT31;48512;48.552;9.380;2022-09-30T12:30:24;24.69;40.19
62464;SHT31;48512;48.552;9.380;2022-09-30T12:48:32;25.16;40.04
62464;SHT31;48512;48.552;9.380;2022-09-30T12:50:58;24.99;40.88
62464;SHT31;48512;48.552;9.380;2022-09-30T12:53:28;24.55;40.91
62464;SHT31;48512;48.552;9.380;2022-09-30T12:56:00;23.60;43.46
62464;SHT31;48512;48.552;9.380;2022-09-30T12:58:29;23.12;45.55
62464;SHT31;48512;48.552;9.380;2022-09-30T13:03:24;22.06;45.33
62464;SHT31;48512;48.552;9.380;2022-09-30T13:05:51;23.11;43.99
62464;SHT31;48512;48.552;9.380;2022-09-30T13:10:43;22.53;44.90
62464;SHT31;48512;48.552;9.380;2022-09-30T13:15:41;22.12;45.68
62464;SHT31;48512;48.552;9.380;2022-09-30T13:25:59;20.93;47.37
62464;SHT31;48512;48.552;9.380;2022-09-30T13:28:26;20.84;47.99
62464;SHT31;48512;48.552;9.380;2022-09-30T13:31:10;21.53;46.99
62464;SHT31;48512;48.552;9.380;2022-09-30T13:33:40;23.30;43.47
62464;SHT31;48512;48.552;9.380;2022-09-30T13:36:13;23.65;44.03
62464;SHT31;48512;48.552;9.380;2022-09-30T13:38:39;22.65;44.40
62464;SHT31;48512;48.552;9.380;2022-09-30T13:46:05;20.88;48.08
62464;SHT31;48512;48.552;9.380;2022-09-30T13:48:32;20.82;48.27
62464;SHT31;48512;48.552;9.380;2022-09-30T13:50:59;20.96;46.77
62464;SHT31;48512;48.552;9.380;2022-09-30T13:53:33;20.84;48.35
62464;SHT31;48512;48.552;9.380;2022-09-30T13:56:03;19.61;50.14
62464;SHT31;48512;48.552;9.380;2022-09-30T14:03:41;19.86;49.00
62464;SHT31;48512;48.552;9.380;2022-09-30T14:06:16;20.05;49.45
62464;SHT31;48512;48.552;9.380;2022-09-30T14:22:01;19.96;50.04
62464;SHT31;48512;48.552;9.380;2022-09-30T14:24:34;20.54;49.20
62464;SHT31;48512;48.552;9.380;2022-09-30T14:32:00;20.38;49.15
62464;SHT31;48512;48.552;9.380;2022-09-30T14:34:34;20.23;49.00
62464;SHT31;48512;48.552;9.380;2022-09-30T14:37:00;20.12;49.17
62464;SHT31;48512;48.552;9.380;2022-09-30T14:39:27;20.20;48.43
62464;SHT31;48512;48.552;9.380;2022-09-30T14:41:54;20.03;47.50
62464;SHT31;48512;48.552;9.380;2022-09-30T14:44:21;20.03;48.24
62464;SHT31;48512;48.552;9.380;2022-09-30T14:46:48;19.83;48.70
62464;SHT31;48512;48.552;9.380;2022-09-30T14:49:22;19.92;49.36
62464;SHT31;48512;48.552;9.380;2022-09-30T14:51:52;19.80;49.32
62464;SHT31;48512;48.552;9.380;2022-09-30T14:54:19;20.16;48.92
62464;SHT31;48512;48.552;9.380;2022-09-30T14:56:45;19.78;49.75
62464;SHT31;48512;48.552;9.380;2022-09-30T14:59:14;19.73;50.37
62464;SHT31;48512;48.552;9.380;2022-09-30T15:01:40;19.62;50.71
62464;SHT31;48512;48.552;9.380;2022-09-30T15:04:10;19.57;50.72
62464;SHT31;48512;48.552;9.380;2022-09-30T15:06:37;20.10;48.44
62464;SHT31;48512;48.552;9.380;2022-09-30T15:09:46;20.07;49.60
62464;SHT31;48512;48.552;9.380;2022-09-30T15:11:51;19.75;50.68
62464;SHT31;48512;48.552;9.380;2022-09-30T15:14:21;19.63;50.87
62464;SHT31;48512;48.552;9.380;2022-09-30T15:16:47;19.57;50.87
62464;SHT31;48512;48.552;9.380;2022-09-30T15:19:22;19.47;49.92
62464;SHT31;48512;48.552;9.380;2022-09-30T15:21:55;19.34;52.22
62464;SHT31;48512;48.552;9.380;2022-09-30T15:24:22;19.10;54.05
62464;SHT31;48512;48.552;9.380;2022-09-30T15:26:48;19.02;52.64
62464;SHT31;48512;48.552;9.380;2022-09-30T15:29:15;18.77;52.94
62464;SHT31;48512;48.552;9.380;2022-09-30T15:31:44;18.77;53.25
62464;SHT31;48512;48.552;9.380;2022-09-30T15:36:35;18.52;54.88
62464;SHT31;48512;48.552;9.380;2022-09-30T15:39:01;18.37;54.92
62464;SHT31;48512;48.552;9.380;2022-09-30T15:41:27;18.38;54.81
62464;SHT31;48512;48.552;9.380;2022-09-30T15:43:52;18.14;55.92
62464;SHT31;48512;48.552;9.380;2022-09-30T15:46:22;17.93;58.05
62464;SHT31;48512;48.552;9.380;2022-09-30T15:48:50;17.83;59.27
62464;SHT31;48512;48.552;9.380;2022-09-30T15:53:46;17.07;59.84
62464;SHT31;48512;48.552;9.380;2022-09-30T15:59:11;16.53;62.81
62464;SHT31;48512;48.552;9.380;2022-09-30T16:01:40;16.49;62.96
62464;SHT31;48512;48.552;9.380;2022-09-30T16:04:08;16.36;62.80
62464;SHT31;48512;48.552;9.380;2022-09-30T16:09:05;16.67;62.12
62464;SHT31;48512;48.552;9.380;2022-09-30T16:13:59;16.53;62.36
62464;SHT31;48512;48.552;9.380;2022-09-30T16:16:27;16.50;62.80
62464;SHT31;48512;48.552;9.380;2022-09-30T16:18:54;16.33;63.24
62464;SHT31;48512;48.552;9.380;2022-09-30T16:21:35;16.18;63.51
62464;SHT31;48512;48.552;9.380;2022-09-30T16:24:14;15.87;64.04
62464;SHT31;48512;48.552;9.380;2022-09-30T16:26:56;15.36;65.46
62464;SHT31;48512;48.552;9.380;2022-09-30T16:29:21;15.20;66.28
62464;SHT31;48512;48.552;9.380;2022-09-30T16:31:48;15.16;66.19
62464;SHT31;48512;48.552;9.380;2022-09-30T16:34:23;14.92;66.96
62464;SHT31;48512;48.552;9.380;2022-09-30T16:36:49;14.78;67.75
62464;SHT31;48512;48.552;9.380;2022-09-30T16:39:14;14.57;68.83
62464;SHT31;48512;48.552;9.380;2022-09-30T16:41:40;14.42;70.25
62464;SHT31;48512;48.552;9.380;2022-09-30T16:44:06;14.40;70.70
62464;SHT31;48512;48.552;9.380;2022-09-30T16:46:31;14.29;71.14
62464;SHT31;48512;48.552;9.380;2022-09-30T16:48:57;14.27;71.20
62464;SHT31;48512;48.552;9.380;2022-09-30T16:51:23;14.08;71.51
62464;SHT31;48512;48.552;9.380;2022-09-30T16:53:48;14.03;71.58
62464;SHT31;48512;48.552;9.380;2022-09-30T16:56:14;13.90;72.06
62464;SHT31;48512;48.552;9.380;2022-09-30T16:58:40;13.74;72.34
62464;SHT31;48512;48.552;9.380;2022-09-30T17:01:11;13.50;72.57
62464;SHT31;48512;48.552;9.380;2022-09-30T17:03:39;13.36;72.95
62464;SHT31;48512;48.552;9.380;2022-09-30T17:06:04;13.24;73.40
62464;SHT31;48512;48.552;9.380;2022-09-30T17:08:29;13.30;73.18
62464;SHT31;48512;48.552;9.380;2022-09-30T17:10:55;13.18;73.19
62464;SHT31;48512;48.552;9.380;2022-09-30T17:13:21;13.27;73.07
62464;SHT31;48512;48.552;9.380;2022-09-30T17:15:47;13.14;73.16
62464;SHT31;48512;48.552;9.380;2022-09-30T17:18:13;13.06;73.19
62464;SHT31;48512;48.552;9.380;2022-09-30T17:20:41;13.00;73.21
62464;SHT31;48512;48.552;9.380;2022-09-30T17:23:06;12.83;73.46
62464;SHT31;48512;48.552;9.380;2022-09-30T17:25:32;12.68;73.74
62464;SHT31;48512;48.552;9.380;2022-09-30T17:27:57;12.65;73.99
62464;SHT31;48512;48.552;9.380;2022-09-30T17:30:24;12.46;74.29
62464;SHT31;48512;48.552;9.380;2022-09-30T17:32:49;12.38;74.62
62464;SHT31;48512;48.552;9.380;2022-09-30T17:35:16;12.30;74.49
62464;SHT31;48512;48.552;9.380;2022-09-30T17:37:41;12.25;74.40
62464;SHT31;48512;48.552;9.380;2022-09-30T17:40:08;12.28;74.47
62464;SHT31;48512;48.552;9.380;2022-09-30T17:42:52;12.27;74.58
62464;SHT31;48512;48.552;9.380;2022-09-30T17:45:34;12.23;74.92
62464;SHT31;48512;48.552;9.380;2022-09-30T17:48:00;12.25;74.87
62464;SHT31;48512;48.552;9.380;2022-09-30T17:50:25;12.20;75.07
62464;SHT31;48512;48.552;9.380;2022-09-30T17:52:51;12.24;75.09
62464;SHT31;48512;48.552;9.380;2022-09-30T17:55:17;12.34;75.24
62464;SHT31;48512;48.552;9.380;2022-09-30T17:57:42;12.37;75.20
62464;SHT31;48512;48.552;9.380;2022-09-30T18:00:07;12.41;75.32
62464;SHT31;48512;48.552;9.380;2022-09-30T18:02:33;12.38;75.54
62464;SHT31;48512;48.552;9.380;2022-09-30T18:04:58;12.34;75.93
62464;SHT31;48512;48.552;9.380;2022-09-30T18:07:23;12.32;76.66
62464;SHT31;48512;48.552;9.380;2022-09-30T18:09:49;12.30;77.25
62464;SHT31;48512;48.552;9.380;2022-09-30T18:12:15;12.30;77.41
62464;SHT31;48512;48.552;9.380;2022-09-30T18:14:40;12.24;77.64
62464;SHT31;48512;48.552;9.380;2022-09-30T18:17:07;12.24;77.78
62464;SHT31;48512;48.552;9.380;2022-09-30T18:19:33;12.24;78.10
62464;SHT31;48512;48.552;9.380;2022-09-30T18:21:59;12.10;78.68
62464;SHT31;48512;48.552;9.380;2022-09-30T18:24:25;11.86;79.60
62464;SHT31;48512;48.552;9.380;2022-09-30T18:27:09;11.86;79.43
62464;SHT31;48512;48.552;9.380;2022-09-30T18:29:35;11.87;79.18
62464;SHT31;48512;48.552;9.380;2022-09-30T18:32:00;11.90;79.06
62464;SHT31;48512;48.552;9.380;2022-09-30T18:34:26;11.84;79.15
62464;SHT31;48512;48.552;9.380;2022-09-30T18:36:51;11.70;79.34
62464;SHT31;48512;48.552;9.380;2022-09-30T18:39:16;11.80;79.02
62464;SHT31;48512;48.552;9.380;2022-09-30T18:41:42;11.83;78.92
62464;SHT31;48512;48.552;9.380;2022-09-30T18:44:08;11.65;79.41
62464;SHT31;48512;48.552;9.380;2022-09-30T18:46:33;11.73;79.16
62464;SHT31;48512;48.552;9.380;2022-09-30T18:48:58;11.65;79.10
62464;SHT31;48512;48.552;9.380;2022-09-30T18:51:24;11.58;79.40
62464;SHT31;48512;48.552;9.380;2022-09-30T18:53:55;11.58;78.97
62464;SHT31;48512;48.552;9.380;2022-09-30T18:56:22;11.67;78.80
62464;SHT31;48512;48.552;9.380;2022-09-30T18:58:48;11.58;78.58
62464;SHT31;48512;48.552;9.380;2022-09-30T19:01:13;11.58;78.66
62464;SHT31;48512;48.552;9.380;2022-09-30T19:03:39;11.66;78.17
62464;SHT31;48512;48.552;9.380;2022-09-30T19:06:05;11.61;78.09
62464;SHT31;48512;48.552;9.380;2022-09-30T19:08:31;11.66;77.70
62464;SHT31;48512;48.552;9.380;2022-09-30T19:10:56;11.65;77.72
62464;SHT31;48512;48.552;9.380;2022-09-30T19:13:21;11.52;78.24
62464;SHT31;48512;48.552;9.380;2022-09-30T19:15:51;11.40;78.23
62464;SHT31;48512;48.552;9.380;2022-09-30T19:18:16;11.34;78.31